Time;durP1;ratioP1;P1;durP2;ratioP2;P2;SDS_P1;SDS_P2;PMS_P1;PMS_P2;Temp;Humidity;BMP_temperature;BMP_pressure;BME280_temperature;BME280_humidity;BME280_pressure;Samples;Min_cycle;Max_cycle;Signal;HPM_P1;HPM_P2
2022/01/22 00:02:05;;;;;;;148.38;61.53;;;;;;;;;;4913763;29;20786;-73
2022/01/22 00:04:33;;;;;;;141.90;62.13;;;;;;;;;;4913973;29;20104;-73
2022/01/22 00:07:02;;;;;;;141.90;61.97;;;;;;;;;;4914308;29;20051;-73
2022/01/22 00:09:52;;;;;;;134.77;60.70;;;;;;;;;;4914373;29;20080;-73
2022/01/22 00:12:42;;;;;;;110.18;56.35;;;;;;;;;;4914015;29;20083;-73
2022/01/22 00:15:11;;;;;;;106.65;56.30;;;;;;;;;;4914326;29;20087;-73
2022/01/22 00:17:38;;;;;;;88.38;50.83;;;;;;;;;;4913814;29;20139;-73
2022/01/22 00:20:06;;;;;;;79.95;47.28;;;;;;;;;;4914088;29;20060;-73
2022/01/22 00:22:36;;;;;;;108.72;55.60;;;;;;;;;;4914119;29;20139;-73
2022/01/22 00:25:07;;;;;;;94.35;51.97;;;;;;;;;;4913751;29;20104;-73
2022/01/22 00:27:35;;;;;;;91.65;49.28;;;;;;;;;;4914194;29;20521;-73
2022/01/22 00:30:24;;;;;;;94.82;46.45;;;;;;;;;;4913726;29;20405;-73
2022/01/22 00:32:52;;;;;;;106.70;51.50;;;;;;;;;;4914817;29;20497;-73
2022/01/22 00:35:20;;;;;;;102.15;53.45;;;;;;;;;;4914279;29;20449;-74
2022/01/22 00:37:51;;;;;;;160.15;49.33;;;;;;;;;;4898198;29;20056;-73
2022/01/22 00:40:19;;;;;;;180.00;54.88;;;;;;;;;;4914218;29;20135;-73
2022/01/22 00:42:47;;;;;;;190.93;48.35;;;;;;;;;;4913531;29;20075;-74
2022/01/22 00:45:15;;;;;;;162.57;50.45;;;;;;;;;;4898739;29;20464;-73
2022/01/22 00:47:42;;;;;;;69.43;45.30;;;;;;;;;;4913373;29;20076;-74
2022/01/22 00:50:12;;;;;;;69.38;43.42;;;;;;;;;;4915147;29;20116;-72
2022/01/22 00:52:40;;;;;;;253.07;50.47;;;;;;;;;;4913395;29;20144;-74
2022/01/22 00:55:08;;;;;;;285.70;54.47;;;;;;;;;;4913903;29;20821;-74
2022/01/22 00:57:35;;;;;;;150.65;47.60;;;;;;;;;;4913532;29;20055;-75
2022/01/22 01:00:05;;;;;;;177.90;45.90;;;;;;;;;;4913815;29;20552;-72
2022/01/22 01:02:33;;;;;;;103.28;43.92;;;;;;;;;;4915233;29;20062;-73
2022/01/22 01:05:01;;;;;;;103.10;43.28;;;;;;;;;;4914899;29;20099;-73
2022/01/22 01:07:30;;;;;;;218.18;50.60;;;;;;;;;;4916217;29;20406;-73
2022/01/22 01:09:58;;;;;;;123.20;49.95;;;;;;;;;;4917187;29;20068;-74
2022/01/22 01:12:26;;;;;;;261.45;57.40;;;;;;;;;;4917010;29;20143;-73
2022/01/22 01:36:38;;;;;;;121.90;42.10;;;;;;;;;;4916044;29;20059;-73
2022/01/22 01:39:09;;;;;;;84.70;36.45;;;;;;;;;;4916740;29;20075;-73
2022/01/22 01:42:25;;;;;;;71.85;38.45;;;;;;;;;;4918044;29;20048;-74
2022/01/22 01:44:28;;;;;;;77.28;36.95;;;;;;;;;;4893760;29;20083;-73
2022/01/22 01:47:21;;;;;;;128.77;40.17;;;;;;;;;;4916359;29;20067;-73
2022/01/22 01:49:48;;;;;;;86.60;38.63;;;;;;;;;;4916307;29;20049;-74
2022/01/22 01:52:46;;;;;;;159.63;42.38;;;;;;;;;;4900470;29;20474;-73
2022/01/22 01:55:20;;;;;;;121.22;39.63;;;;;;;;;;4881879;29;20056;-73
2022/01/22 01:57:49;;;;;;;152.80;38.70;;;;;;;;;;4896673;29;20448;-74
2022/01/22 02:00:22;;;;;;;111.00;44.95;;;;;;;;;;4909066;29;20413;-73
2022/01/22 02:02:58;;;;;;;68.03;39.58;;;;;;;;;;4914558;29;20429;-73
2022/01/22 02:05:29;;;;;;;104.17;43.63;;;;;;;;;;4916303;29;20051;-73
2022/01/22 02:07:58;;;;;;;79.50;39.22;;;;;;;;;;4915397;29;20308;-73
2022/01/22 02:10:39;;;;;;;66.03;35.80;;;;;;;;;;4882030;29;20049;-73
2022/01/22 02:24:20;;;;;;;100.60;40.33;;;;;;;;;;4899840;29;20519;-73
2022/01/22 02:26:49;;;;;;;160.98;46.88;;;;;;;;;;4915489;29;20087;-73
2022/01/22 02:29:32;;;;;;;112.60;44.55;;;;;;;;;;4899518;29;20056;-74
2022/01/22 02:35:50;;;;;;;121.57;42.65;;;;;;;;;;4872083;29;20065;-72
2022/01/22 02:38:24;;;;;;;144.32;46.53;;;;;;;;;;4895234;29;20107;-74
2022/01/22 02:40:52;;;;;;;110.82;45.63;;;;;;;;;;4915709;29;20104;-74
2022/01/22 02:43:20;;;;;;;124.07;50.15;;;;;;;;;;4915499;29;20048;-73
2022/01/22 02:45:50;;;;;;;149.95;49.90;;;;;;;;;;4914857;29;20083;-73
2022/01/22 02:48:17;;;;;;;174.93;51.28;;;;;;;;;;4915220;29;20064;-73
2022/01/22 02:50:44;;;;;;;229.27;53.75;;;;;;;;;;4915481;29;20056;-73
2022/01/22 02:53:12;;;;;;;182.40;49.25;;;;;;;;;;4915202;29;20186;-73
2022/01/22 02:55:42;;;;;;;141.45;51.40;;;;;;;;;;4915456;29;20059;-74
2022/01/22 02:58:09;;;;;;;203.68;51.42;;;;;;;;;;4915150;29;20074;-73
2022/01/22 03:00:36;;;;;;;144.77;52.00;;;;;;;;;;4914833;29;20421;-74
2022/01/22 03:03:03;;;;;;;186.18;52.15;;;;;;;;;;4914869;29;20063;-73
2022/01/22 03:05:33;;;;;;;136.90;47.97;;;;;;;;;;4899516;29;20409;-72
2022/01/22 03:08:05;;;;;;;223.57;53.63;;;;;;;;;;4899472;29;20044;-73
2022/01/22 03:10:33;;;;;;;164.20;53.70;;;;;;;;;;4914773;29;20052;-74
2022/01/22 03:18:22;;;;;;;167.70;51.08;;;;;;;;;;4914857;29;20055;-73
2022/01/22 03:28:59;;;;;;;249.82;50.55;;;;;;;;;;4914467;29;20493;-73
2022/01/22 03:31:26;;;;;;;107.13;47.17;;;;;;;;;;4914781;29;20048;-73
2022/01/22 03:33:54;;;;;;;187.82;46.75;;;;;;;;;;4898641;29;20100;-73
2022/01/22 03:36:22;;;;;;;127.95;43.38;;;;;;;;;;4914430;29;20044;-73
2022/01/22 03:38:49;;;;;;;151.43;45.03;;;;;;;;;;4914644;29;20059;-72
2022/01/22 03:41:17;;;;;;;239.27;50.13;;;;;;;;;;4914492;29;20103;-74
2022/01/22 03:43:51;;;;;;;172.55;44.00;;;;;;;;;;4914428;29;20063;-72
2022/01/22 03:46:19;;;;;;;167.45;45.40;;;;;;;;;;4899213;29;20048;-73
2022/01/22 03:48:46;;;;;;;70.57;37.92;;;;;;;;;;4914516;29;20044;-73
2022/01/22 03:51:13;;;;;;;74.57;35.05;;;;;;;;;;4913854;29;20052;-72
2022/01/22 03:53:41;;;;;;;46.53;33.15;;;;;;;;;;4914246;29;20107;-73
2022/01/22 03:56:09;;;;;;;51.63;34.88;;;;;;;;;;4915265;29;20048;-73
2022/01/22 03:58:55;;;;;;;75.53;35.53;;;;;;;;;;4914369;29;20056;-72
2022/01/22 04:04:14;;;;;;;73.15;36.13;;;;;;;;;;4914489;29;20088;-72
2022/01/22 04:09:12;;;;;;;58.55;38.38;;;;;;;;;;4914251;29;20135;-74
2022/01/22 04:11:42;;;;;;;59.80;36.40;;;;;;;;;;4914151;29;20048;-73
2022/01/22 04:14:23;;;;;;;55.50;33.53;;;;;;;;;;4914403;29;20050;-73
2022/01/22 04:25:02;;;;;;;60.28;30.67;;;;;;;;;;4911339;29;20076;-72
2022/01/22 04:27:29;;;;;;;50.45;34.67;;;;;;;;;;4914068;29;20040;-72
2022/01/22 04:29:58;;;;;;;89.80;31.98;;;;;;;;;;4913625;29;20064;-73
2022/01/22 04:32:30;;;;;;;55.65;32.40;;;;;;;;;;4914225;29;20406;-72
2022/01/22 04:35:03;;;;;;;46.65;31.00;;;;;;;;;;4913036;29;20052;-73
2022/01/22 04:37:38;;;;;;;45.50;31.23;;;;;;;;;;4914260;29;20397;-73
2022/01/22 04:40:07;;;;;;;52.13;34.47;;;;;;;;;;4911340;29;20048;-73
2022/01/22 04:42:37;;;;;;;83.80;39.08;;;;;;;;;;4910575;29;20043;-73
2022/01/22 04:55:47;;;;;;;63.58;36.03;;;;;;;;;;4902059;29;20143;-72
2022/01/22 04:58:14;;;;;;;55.33;36.33;;;;;;;;;;4918410;29;20052;-72
2022/01/22 05:00:45;;;;;;;51.03;34.17;;;;;;;;;;4901482;29;20080;-74
2022/01/22 05:03:32;;;;;;;58.13;35.58;;;;;;;;;;4916858;29;20052;-74
2022/01/22 05:06:22;;;;;;;56.33;36.35;;;;;;;;;;4882584;29;20059;-72
2022/01/22 05:09:12;;;;;;;61.05;35.88;;;;;;;;;;4917844;29;20123;-73
2022/01/22 05:11:54;;;;;;;76.80;42.20;;;;;;;;;;4901330;29;20131;-72
2022/01/22 05:14:23;;;;;;;69.60;40.10;;;;;;;;;;4909730;29;20045;-73
2022/01/22 05:16:54;;;;;;;72.97;42.70;;;;;;;;;;4899017;29;20063;-72
2022/01/22 05:19:43;;;;;;;64.82;39.65;;;;;;;;;;4895118;29;20052;-73
2022/01/22 05:23:03;;;;;;;83.38;40.45;;;;;;;;;;4913653;29;20052;-72
2022/01/22 05:25:02;;;;;;;78.47;41.97;;;;;;;;;;4894492;29;20048;-72
2022/01/22 05:27:51;;;;;;;88.63;45.92;;;;;;;;;;4916074;29;20057;-73
2022/01/22 05:39:10;;;;;;;76.72;41.38;;;;;;;;;;4916914;29;20442;-72
2022/01/22 05:41:39;;;;;;;92.68;44.28;;;;;;;;;;4917168;29;20056;-73
2022/01/22 05:44:07;;;;;;;78.93;44.85;;;;;;;;;;4916240;29;20135;-74
2022/01/22 05:46:34;;;;;;;73.35;41.95;;;;;;;;;;4916721;29;20055;-73
2022/01/22 05:49:03;;;;;;;76.55;42.08;;;;;;;;;;4916260;29;20147;-72
2022/01/22 05:51:30;;;;;;;76.95;43.50;;;;;;;;;;4916741;29;20128;-73
2022/01/22 06:02:01;;;;;;;75.22;38.85;;;;;;;;;;4916297;29;20048;-73
2022/01/22 06:04:28;;;;;;;71.43;39.22;;;;;;;;;;4915706;29;20052;-74
2022/01/22 06:07:03;;;;;;;86.28;45.83;;;;;;;;;;4911379;29;20143;-74
2022/01/22 06:09:32;;;;;;;69.93;42.85;;;;;;;;;;4900882;29;20104;-74
2022/01/22 06:12:16;;;;;;;82.53;40.85;;;;;;;;;;4915331;29;20052;-75
2022/01/22 06:14:48;;;;;;;75.28;38.55;;;;;;;;;;4913155;29;20130;-76
2022/01/22 06:17:15;;;;;;;72.22;41.13;;;;;;;;;;4915698;29;20488;-72
2022/01/22 06:20:04;;;;;;;71.97;41.72;;;;;;;;;;4906577;29;20450;-74
2022/01/22 06:22:31;;;;;;;71.55;37.35;;;;;;;;;;4915348;29;20052;-75
2022/01/22 06:24:58;;;;;;;79.90;42.67;;;;;;;;;;4900560;29;20059;-74
2022/01/22 06:27:25;;;;;;;74.95;40.65;;;;;;;;;;4915865;29;20048;-74
2022/01/22 06:29:52;;;;;;;67.07;37.78;;;;;;;;;;4915586;29;20044;-74
2022/01/22 06:32:20;;;;;;;78.97;42.95;;;;;;;;;;4915734;29;20056;-74
2022/01/22 06:34:47;;;;;;;77.90;40.47;;;;;;;;;;4911917;29;20532;-76
2022/01/22 06:37:15;;;;;;;72.15;36.17;;;;;;;;;;4864222;29;20131;-76
2022/01/22 06:41:44;;;;;;;70.03;39.78;;;;;;;;;;4909372;29;20052;-74
2022/01/22 06:43:08;;;;;;;80.22;44.45;;;;;;;;;;4897385;29;20540;-77
2022/01/22 06:45:59;;;;;;;76.10;35.58;;;;;;;;;;4909344;29;20071;-70
2022/01/22 06:48:32;;;;;;;63.55;34.22;;;;;;;;;;4895065;29;20061;-76
2022/01/22 06:51:29;;;;;;;65.82;39.38;;;;;;;;;;4897825;29;20052;-72
2022/01/22 06:53:57;;;;;;;67.07;37.65;;;;;;;;;;4912291;29;20056;-75
2022/01/22 06:56:28;;;;;;;70.05;36.72;;;;;;;;;;4910807;29;20051;-76
2022/01/22 06:59:13;;;;;;;69.72;38.88;;;;;;;;;;4894060;29;20131;-73
2022/01/22 07:01:44;;;;;;;62.97;37.28;;;;;;;;;;4914787;29;20135;-73
2022/01/22 07:04:17;;;;;;;65.38;39.80;;;;;;;;;;4912604;29;20064;-74
2022/01/22 07:07:14;;;;;;;74.82;39.47;;;;;;;;;;4914019;29;20055;-75
2022/01/22 07:09:45;;;;;;;61.03;38.72;;;;;;;;;;4907558;29;20048;-75
2022/01/22 07:12:12;;;;;;;64.05;37.28;;;;;;;;;;4913807;29;20075;-72
2022/01/22 07:14:41;;;;;;;64.82;37.45;;;;;;;;;;4897303;29;20044;-76
2022/01/22 07:17:09;;;;;;;64.45;36.10;;;;;;;;;;4913369;29;20413;-75
2022/01/22 07:19:52;;;;;;;69.07;39.17;;;;;;;;;;4912967;29;20036;-76
2022/01/22 07:22:39;;;;;;;73.95;36.95;;;;;;;;;;4911268;29;20147;-74
2022/01/22 07:25:25;;;;;;;74.70;40.13;;;;;;;;;;4915985;29;20636;-76
2022/01/22 07:27:56;;;;;;;65.18;37.88;;;;;;;;;;4913004;29;20084;-79
2022/01/22 07:30:27;;;;;;;64.93;40.20;;;;;;;;;;4915555;29;20651;-79
2022/01/22 07:32:54;;;;;;;65.88;41.50;;;;;;;;;;4915893;29;20059;-80
2022/01/22 07:35:21;;;;;;;69.05;38.50;;;;;;;;;;4916591;29;20060;-79
2022/01/22 07:38:03;;;;;;;64.30;34.95;;;;;;;;;;4900439;29;20052;-79
2022/01/22 07:40:31;;;;;;;73.55;40.15;;;;;;;;;;4915561;29;20062;-79
2022/01/22 07:43:01;;;;;;;71.80;39.38;;;;;;;;;;4915221;29;20052;-79
2022/01/22 07:45:46;;;;;;;72.80;40.70;;;;;;;;;;4916264;29;20059;-79
2022/01/22 07:48:17;;;;;;;69.82;37.20;;;;;;;;;;4916903;29;20059;-79
2022/01/22 07:51:07;;;;;;;75.03;40.35;;;;;;;;;;4916605;29;20600;-80
2022/01/22 07:53:34;;;;;;;71.50;37.50;;;;;;;;;;4915275;29;20048;-80
2022/01/22 07:56:09;;;;;;;66.38;36.63;;;;;;;;;;4915615;29;20441;-80
2022/01/22 07:58:36;;;;;;;60.22;35.85;;;;;;;;;;4915781;29;20056;-80
2022/01/22 08:01:03;;;;;;;63.97;34.08;;;;;;;;;;4912567;29;20045;-80
2022/01/22 08:03:41;;;;;;;61.78;36.05;;;;;;;;;;4880515;29;20060;-77
2022/01/22 08:06:27;;;;;;;70.20;37.58;;;;;;;;;;4870559;29;20186;-79
2022/01/22 08:09:17;;;;;;;61.50;36.83;;;;;;;;;;4868398;29;20069;-78
2022/01/22 08:11:56;;;;;;;70.70;38.63;;;;;;;;;;4882139;29;20059;-80
2022/01/22 08:14:23;;;;;;;65.82;35.50;;;;;;;;;;4895742;29;20601;-79
2022/01/22 08:16:50;;;;;;;65.15;36.40;;;;;;;;;;4898077;29;20052;-79
2022/01/22 08:19:19;;;;;;;64.63;35.45;;;;;;;;;;4869447;29;20060;-79
2022/01/22 08:21:47;;;;;;;67.88;36.65;;;;;;;;;;4869715;29;20064;-80
2022/01/22 08:24:32;;;;;;;64.95;34.30;;;;;;;;;;4901351;29;20558;-80
2022/01/22 08:29:34;;;;;;;58.05;32.35;;;;;;;;;;4900315;29;19955;-81
2022/01/22 08:37:18;;;;;;;63.58;33.63;;;;;;;;;;4884762;29;20218;-80
2022/01/22 08:39:46;;;;;;;58.35;33.42;;;;;;;;;;4884801;29;20053;-80
2022/01/22 08:42:13;;;;;;;62.40;34.35;;;;;;;;;;4884213;29;20127;-80
2022/01/22 08:44:40;;;;;;;55.65;32.72;;;;;;;;;;4885089;29;20091;-82
2022/01/22 08:47:12;;;;;;;54.90;33.20;;;;;;;;;;4899928;29;20092;-81
2022/01/22 08:49:40;;;;;;;51.80;29.98;;;;;;;;;;4884706;29;20057;-81
2022/01/22 08:52:12;;;;;;;59.53;33.28;;;;;;;;;;4884380;29;20060;-81
2022/01/22 08:54:42;;;;;;;98.07;54.45;;;;;;;;;;4884606;29;20462;-80
2022/01/22 08:57:10;;;;;;;76.15;41.47;;;;;;;;;;4884365;29;20100;-81
2022/01/22 08:59:52;;;;;;;77.60;43.03;;;;;;;;;;4899296;29;20084;-81
2022/01/22 09:02:19;;;;;;;60.03;34.25;;;;;;;;;;4872174;29;20064;-82
2022/01/22 09:05:07;;;;;;;93.47;50.47;;;;;;;;;;4899177;29;20060;-82
2022/01/22 09:07:57;;;;;;;64.57;39.85;;;;;;;;;;4913278;29;20528;-81
2022/01/22 09:10:30;;;;;;;172.95;84.20;;;;;;;;;;4918600;29;20048;-81
2022/01/22 09:13:27;;;;;;;128.30;66.35;;;;;;;;;;4910857;29;20071;-82
2022/01/22 09:16:05;;;;;;;239.55;112.80;;;;;;;;;;4916591;29;20516;-83
2022/01/22 09:18:33;;;;;;;54.38;28.50;;;;;;;;;;4902897;29;20110;-83
2022/01/22 09:23:29;;;;;;;51.42;27.67;;;;;;;;;;4918295;29;20056;-80
2022/01/22 09:25:58;;;;;;;43.67;26.08;;;;;;;;;;4918103;29;20060;-78
2022/01/22 09:28:26;;;;;;;40.67;24.45;;;;;;;;;;4902008;29;20056;-83
2022/01/22 09:30:58;;;;;;;39.28;21.98;;;;;;;;;;4902666;29;20056;-82
2022/01/22 09:33:26;;;;;;;38.30;23.30;;;;;;;;;;4917773;29;20497;-81
2022/01/22 09:36:19;;;;;;;46.17;22.50;;;;;;;;;;4904013;29;20105;-82
2022/01/22 09:39:14;;;;;;;;;;;;;;;;;;4918198;29;20055;-82
2022/01/22 09:41:53;;;;;;;30.33;20.50;;;;;;;;;;4925910;29;20403;-83
2022/01/22 09:44:49;;;;;;;22.10;15.20;;;;;;;;;;4914849;29;20049;-83
2022/01/22 09:47:51;;;;;;;20.63;14.07;;;;;;;;;;4901859;29;20508;-83
2022/01/22 09:50:47;;;;;;;21.48;14.45;;;;;;;;;;4910328;29;20138;-83
2022/01/22 09:53:19;;;;;;;22.15;13.63;;;;;;;;;;4918418;29;20091;-84
2022/01/22 09:56:13;;;;;;;20.35;14.02;;;;;;;;;;4896568;29;20837;-84
2022/01/22 09:58:59;;;;;;;18.80;12.98;;;;;;;;;;4914561;29;20528;-84
2022/01/22 10:01:34;;;;;;;22.95;13.43;;;;;;;;;;4912033;29;20057;-84
2022/01/22 10:04:37;;;;;;;19.10;13.63;;;;;;;;;;4913892;29;20135;-85
2022/01/22 10:07:27;;;;;;;22.27;14.25;;;;;;;;;;4917358;29;20049;-85
2022/01/22 10:10:06;;;;;;;24.25;16.10;;;;;;;;;;4906164;29;20402;-84
2022/01/22 10:12:52;;;;;;;21.92;15.82;;;;;;;;;;4898770;29;20087;-84
2022/01/22 10:15:34;;;;;;;33.13;18.45;;;;;;;;;;4895204;29;20135;-85
2022/01/22 10:18:08;;;;;;;32.72;20.60;;;;;;;;;;4914120;29;20067;-86
2022/01/22 10:20:36;;;;;;;38.58;22.10;;;;;;;;;;4905286;29;20059;-85
2022/01/22 10:23:10;;;;;;;36.40;21.73;;;;;;;;;;4910787;29;20081;-86
2022/01/22 10:25:43;;;;;;;29.90;19.63;;;;;;;;;;4900956;29;20137;-88
2022/01/22 10:28:20;;;;;;;36.58;20.02;;;;;;;;;;4919735;29;20056;-81
2022/01/22 10:30:52;;;;;;;33.00;20.48;;;;;;;;;;4906798;29;20139;-84
2022/01/22 10:33:36;;;;;;;35.92;21.17;;;;;;;;;;4899376;29;20532;-85
2022/01/22 10:36:23;;;;;;;37.42;19.98;;;;;;;;;;4918920;29;20127;-85
2022/01/22 10:39:26;;;;;;;30.88;19.33;;;;;;;;;;4908680;29;20056;-83
2022/01/22 10:41:53;;;;;;;36.25;21.50;;;;;;;;;;4900247;29;20045;-84
2022/01/22 10:44:36;;;;;;;36.28;20.67;;;;;;;;;;4918144;29;20048;-86
2022/01/22 10:47:04;;;;;;;35.22;22.95;;;;;;;;;;4900271;29;20040;-85
2022/01/22 10:49:31;;;;;;;32.10;20.95;;;;;;;;;;4915391;29;20083;-87
2022/01/22 10:52:00;;;;;;;31.85;22.45;;;;;;;;;;4915363;29;20049;-86
2022/01/22 10:54:29;;;;;;;31.98;22.38;;;;;;;;;;4916709;29;20052;-89
2022/01/22 10:57:09;;;;;;;41.10;22.42;;;;;;;;;;4898066;29;20132;-87
2022/01/22 10:59:37;;;;;;;36.28;24.20;;;;;;;;;;4898234;29;20150;-83
2022/01/22 11:02:06;;;;;;;39.53;24.13;;;;;;;;;;4910593;29;20138;-88
2022/01/22 11:04:36;;;;;;;35.33;22.80;;;;;;;;;;4917390;29;20052;-86
2022/01/22 11:07:05;;;;;;;36.83;23.02;;;;;;;;;;4917990;29;20052;-87
2022/01/22 11:09:53;;;;;;;41.10;22.83;;;;;;;;;;4912176;29;20056;-89
2022/01/22 11:12:20;;;;;;;39.33;24.65;;;;;;;;;;4916680;29;20091;-88
2022/01/22 11:14:46;;;;;;;42.03;24.30;;;;;;;;;;4914756;29;20066;-86
2022/01/22 11:17:14;;;;;;;36.58;21.73;;;;;;;;;;4900863;29;20052;-89
2022/01/22 11:19:45;;;;;;;37.10;22.52;;;;;;;;;;4916771;29;20048;-89
2022/01/22 11:22:16;;;;;;;42.70;24.02;;;;;;;;;;4897217;29;20079;-87
2022/01/22 11:24:46;;;;;;;35.72;22.90;;;;;;;;;;4913971;29;20058;-86
2022/01/22 11:27:16;;;;;;;36.90;22.40;;;;;;;;;;4915414;29;20079;-84
2022/01/22 11:29:58;;;;;;;38.10;23.02;;;;;;;;;;4897446;29;20056;-81
2022/01/22 11:32:29;;;;;;;42.10;23.65;;;;;;;;;;4915132;29;20076;-83
2022/01/22 11:34:58;;;;;;;43.30;25.30;;;;;;;;;;4912857;29;20075;-85
2022/01/22 11:37:49;;;;;;;38.17;21.83;;;;;;;;;;4909565;29;20054;-86
2022/01/22 11:40:21;;;;;;;39.10;22.05;;;;;;;;;;4910747;29;20131;-84
2022/01/22 11:43:09;;;;;;;34.70;22.00;;;;;;;;;;4914243;29;20053;-83
2022/01/22 11:45:43;;;;;;;41.22;22.50;;;;;;;;;;4884322;29;20499;-85
2022/01/22 11:48:28;;;;;;;40.65;24.75;;;;;;;;;;4906843;29;20162;-85
2022/01/22 11:50:56;;;;;;;;;;;;;;;;;;4898355;29;20565;-84
2022/01/22 11:53:34;;;;;;;40.30;25.02;;;;;;;;;;4913841;29;20261;-87
2022/01/22 11:56:10;;;;;;;37.65;23.58;;;;;;;;;;4913309;29;20075;-86
2022/01/22 11:58:56;;;;;;;38.85;23.30;;;;;;;;;;4900334;29;20079;-85
2022/01/22 12:01:41;;;;;;;40.30;24.58;;;;;;;;;;4897816;29;20426;-85
2022/01/22 12:04:11;;;;;;;43.22;23.98;;;;;;;;;;4917249;29;20576;-85
2022/01/22 12:07:02;;;;;;;45.85;24.30;;;;;;;;;;4915851;29;20055;-84
2022/01/22 12:09:54;;;;;;;41.22;24.23;;;;;;;;;;4914488;29;20051;-83
2022/01/22 12:15:46;;;;;;;48.55;25.85;;;;;;;;;;4884226;29;20140;-82
2022/01/22 12:18:16;;;;;;;39.97;24.25;;;;;;;;;;4914789;29;20056;-78
2022/01/22 12:23:39;;;;;;;40.42;22.20;;;;;;;;;;4907087;29;20059;-75
2022/01/22 12:26:06;;;;;;;37.60;24.55;;;;;;;;;;4907657;29;20052;-75
2022/01/22 12:28:41;;;;;;;46.70;24.83;;;;;;;;;;4907149;29;20050;-75
2022/01/22 12:31:17;;;;;;;40.42;24.10;;;;;;;;;;4913798;29;20055;-76
2022/01/22 12:33:47;;;;;;;39.90;23.73;;;;;;;;;;4882162;29;20045;-76
2022/01/22 12:36:25;;;;;;;38.45;25.02;;;;;;;;;;4914893;29;20043;-75
2022/01/22 12:39:06;;;;;;;36.28;23.95;;;;;;;;;;4893552;29;20048;-75
2022/01/22 12:41:47;;;;;;;44.85;26.63;;;;;;;;;;4904923;29;20119;-75
2022/01/22 12:44:28;;;;;;;44.33;27.48;;;;;;;;;;4913860;29;20135;-76
2022/01/22 12:47:02;;;;;;;36.80;24.13;;;;;;;;;;4913537;29;20134;-75
2022/01/22 12:49:29;;;;;;;40.10;26.60;;;;;;;;;;4899315;29;20446;-75
2022/01/22 12:51:59;;;;;;;37.05;23.20;;;;;;;;;;4915775;29;20063;-80
2022/01/22 12:54:55;;;;;;;37.78;25.58;;;;;;;;;;4914628;29;20163;-83
2022/01/22 12:57:25;;;;;;;37.00;24.55;;;;;;;;;;4916197;29;20053;-80
2022/01/22 13:00:07;;;;;;;37.45;23.45;;;;;;;;;;4904886;29;20483;-81
2022/01/22 13:02:44;;;;;;;36.28;24.20;;;;;;;;;;4908691;29;20074;-79
2022/01/22 13:05:14;;;;;;;40.30;23.23;;;;;;;;;;4918521;29;20119;-81
2022/01/22 13:08:02;;;;;;;40.80;25.00;;;;;;;;;;4891852;29;20143;-82
2022/01/22 13:10:48;;;;;;;36.95;23.25;;;;;;;;;;4916486;29;20047;-79
2022/01/22 13:13:18;;;;;;;37.28;22.38;;;;;;;;;;4918503;29;20084;-81
2022/01/22 13:15:46;;;;;;;40.10;24.20;;;;;;;;;;4918034;29;20687;-81
2022/01/22 13:18:13;;;;;;;37.80;23.05;;;;;;;;;;4919779;29;20046;-81
2022/01/22 13:20:42;;;;;;;40.47;23.75;;;;;;;;;;4918625;29;20050;-79
2022/01/22 13:23:16;;;;;;;35.50;22.60;;;;;;;;;;4918058;29;20141;-79
2022/01/22 13:25:43;;;;;;;39.55;22.92;;;;;;;;;;4918456;29;20056;-79
2022/01/22 13:28:12;;;;;;;42.72;27.85;;;;;;;;;;4917819;29;20072;-77
2022/01/22 13:30:53;;;;;;;43.85;25.23;;;;;;;;;;4918306;29;20059;-80
2022/01/22 13:33:33;;;;;;;43.80;27.20;;;;;;;;;;4918124;29;20135;-85
2022/01/22 13:49:37;;;;;;;41.72;26.73;;;;;;;;;;4918363;29;20048;-84
2022/01/22 13:52:09;;;;;;;40.97;24.45;;;;;;;;;;4917915;29;20608;-75
2022/01/22 13:54:42;;;;;;;39.70;22.50;;;;;;;;;;4916548;29;20058;-78
2022/01/22 13:57:12;;;;;;;43.90;25.75;;;;;;;;;;4918100;29;20063;-78
2022/01/22 13:59:44;;;;;;;40.90;25.27;;;;;;;;;;4915897;29;20083;-78
2022/01/22 14:04:48;;;;;;;64.85;30.60;;;;;;;;;;4916769;29;20059;-79
2022/01/22 14:07:26;;;;;;;49.88;31.10;;;;;;;;;;4916281;29;20080;-78
2022/01/22 14:10:03;;;;;;;55.00;32.15;;;;;;;;;;4916706;29;20088;-78
2022/01/22 14:12:40;;;;;;;50.80;30.02;;;;;;;;;;4917848;29;20060;-80
2022/01/22 14:15:11;;;;;;;51.20;32.78;;;;;;;;;;4916986;29;20044;-78
2022/01/22 14:17:54;;;;;;;52.08;31.15;;;;;;;;;;4917852;29;20156;-79
2022/01/22 14:20:28;;;;;;;57.50;34.83;;;;;;;;;;4918033;29;20063;-77
2022/01/22 14:23:07;;;;;;;62.00;29.45;;;;;;;;;;4916612;29;20079;-79
2022/01/22 14:25:54;;;;;;;47.67;29.88;;;;;;;;;;4916309;29;20444;-78
2022/01/22 14:28:51;;;;;;;55.70;30.85;;;;;;;;;;4916340;29;20433;-79
2022/01/22 14:31:29;;;;;;;56.38;32.63;;;;;;;;;;4915690;29;20474;-76
2022/01/22 14:34:03;;;;;;;51.75;30.73;;;;;;;;;;4915544;29;20058;-74
2022/01/22 14:36:45;;;;;;;49.83;30.17;;;;;;;;;;4915154;29;20052;-76
2022/01/22 14:43:59;;;;;;;50.80;31.17;;;;;;;;;;4915531;29;20139;-76
2022/01/22 14:44:54;;;;;;;56.53;31.83;;;;;;;;;;4902316;29;20059;-76
2022/01/22 14:47:31;;;;;;;54.22;29.98;;;;;;;;;;4916990;29;20055;-76
2022/01/22 14:50:07;;;;;;;55.47;32.88;;;;;;;;;;4915216;29;20496;-76
2022/01/22 14:52:35;;;;;;;56.30;33.67;;;;;;;;;;4915404;29;20072;-75
2022/01/22 14:55:08;;;;;;;53.40;33.20;;;;;;;;;;4911344;29;20501;-75
2022/01/22 14:57:37;;;;;;;50.67;30.83;;;;;;;;;;4915085;29;20536;-75
2022/01/22 15:00:11;;;;;;;57.13;33.47;;;;;;;;;;4899187;29;20500;-76
2022/01/22 15:02:39;;;;;;;54.70;30.45;;;;;;;;;;4914687;29;20094;-73
2022/01/22 15:05:11;;;;;;;50.63;29.90;;;;;;;;;;4915093;29;20103;-74
2022/01/22 15:07:40;;;;;;;53.35;32.75;;;;;;;;;;4908780;29;20047;-72
2022/01/22 15:10:08;;;;;;;57.13;33.33;;;;;;;;;;4906010;29;20048;-73
2022/01/22 15:12:37;;;;;;;61.95;34.03;;;;;;;;;;4894050;29;20052;-73
2022/01/22 15:15:30;;;;;;;50.33;31.85;;;;;;;;;;4896890;29;20044;-76
2022/01/22 15:18:07;;;;;;;48.97;31.83;;;;;;;;;;4892997;29;20671;-76
2022/01/22 15:20:35;;;;;;;54.90;32.53;;;;;;;;;;4923832;29;20044;-73
2022/01/22 15:23:02;;;;;;;54.80;33.25;;;;;;;;;;4913786;29;20036;-72
2022/01/22 15:25:30;;;;;;;56.22;34.72;;;;;;;;;;4914119;29;20052;-76
2022/01/22 15:27:57;;;;;;;54.05;31.67;;;;;;;;;;4898715;29;20433;-72
2022/01/22 15:30:31;;;;;;;56.03;34.08;;;;;;;;;;4913945;29;20052;-73
2022/01/22 15:33:04;;;;;;;56.93;32.47;;;;;;;;;;4915448;29;20075;-77
2022/01/22 15:35:32;;;;;;;60.70;34.42;;;;;;;;;;4917306;29;20296;-73
2022/01/22 15:38:01;;;;;;;55.33;34.85;;;;;;;;;;4904503;29;20066;-75
2022/01/22 15:40:35;;;;;;;61.55;35.47;;;;;;;;;;4908552;29;20052;-75
2022/01/22 15:43:03;;;;;;;57.72;33.33;;;;;;;;;;4909098;29;20127;-74
2022/01/22 15:45:35;;;;;;;62.15;34.50;;;;;;;;;;4913982;29;20044;-78
2022/01/22 15:48:04;;;;;;;59.70;37.85;;;;;;;;;;4908291;29;20127;-72
2022/01/22 15:50:32;;;;;;;53.67;32.90;;;;;;;;;;4910066;29;20062;-78
2022/01/22 15:53:11;;;;;;;56.05;32.67;;;;;;;;;;4906132;29;20111;-82
2022/01/22 15:55:38;;;;;;;54.53;31.15;;;;;;;;;;4915997;29;20078;-82
2022/01/22 15:58:05;;;;;;;55.78;33.47;;;;;;;;;;4916754;29;20071;-83
2022/01/22 16:00:35;;;;;;;86.45;50.75;;;;;;;;;;4915401;29;20052;-82
2022/01/22 16:03:04;;;;;;;133.82;82.70;;;;;;;;;;4923061;29;20059;-78
2022/01/22 16:05:32;;;;;;;153.77;88.95;;;;;;;;;;4905640;29;20056;-76
2022/01/22 16:07:59;;;;;;;88.65;54.05;;;;;;;;;;4927033;29;20691;-77
2022/01/22 16:10:47;;;;;;;74.53;43.60;;;;;;;;;;4925087;29;20044;-79
2022/01/22 16:13:18;;;;;;;72.35;42.72;;;;;;;;;;4927220;29;20102;-78
2022/01/22 16:15:45;;;;;;;64.78;38.88;;;;;;;;;;4899792;29;20048;-81
2022/01/22 16:18:13;;;;;;;79.65;48.50;;;;;;;;;;4911225;29;20051;-82
2022/01/22 16:20:40;;;;;;;74.82;40.72;;;;;;;;;;4920632;29;20065;-79
2022/01/22 16:23:07;;;;;;;64.93;38.83;;;;;;;;;;4903778;29;20044;-79
2022/01/22 16:25:40;;;;;;;66.72;42.70;;;;;;;;;;4919602;29;20048;-78
2022/01/22 16:28:07;;;;;;;58.05;36.47;;;;;;;;;;4898519;29;20117;-78
2022/01/22 16:30:34;;;;;;;92.85;49.53;;;;;;;;;;4917952;29;20123;-84
2022/01/22 16:33:01;;;;;;;81.00;49.63;;;;;;;;;;4884098;29;20052;-80
2022/01/22 16:35:28;;;;;;;73.15;43.75;;;;;;;;;;4919687;29;20519;-82
2022/01/22 16:37:55;;;;;;;68.68;40.55;;;;;;;;;;4924226;29;20043;-83
2022/01/22 16:40:25;;;;;;;71.20;42.85;;;;;;;;;;4904659;29;20548;-79
2022/01/22 16:43:05;;;;;;;74.95;46.70;;;;;;;;;;4912419;29;20048;-81
2022/01/22 16:45:53;;;;;;;83.43;51.47;;;;;;;;;;4909262;29;20105;-81
2022/01/22 16:59:06;;;;;;;63.00;38.72;;;;;;;;;;4899725;29;20138;-82
2022/01/22 17:01:38;;;;;;;63.78;38.38;;;;;;;;;;4905168;29;20059;-84
2022/01/22 17:04:11;;;;;;;61.33;36.72;;;;;;;;;;4907997;29;20064;-84
2022/01/22 17:06:39;;;;;;;62.58;37.25;;;;;;;;;;4906020;29;20049;-81
2022/01/22 17:09:18;;;;;;;64.38;37.05;;;;;;;;;;4919454;29;20100;-78
2022/01/22 17:14:31;;;;;;;69.72;44.45;;;;;;;;;;4907680;29;20052;-80
2022/01/22 17:16:58;;;;;;;79.60;46.92;;;;;;;;;;4905596;29;20540;-75